createdAt,value
2023-02-27T00:00:15.044Z,37.90
2023-02-27T00:02:47.473Z,39.00
2023-02-27T00:05:15.015Z,30.13
2023-02-27T00:07:42.092Z,31.53
2023-02-27T00:10:10.612Z,33.43
2023-02-27T00:12:39.038Z,32.77
2023-02-27T00:15:11.096Z,28.33
2023-02-27T00:17:38.427Z,30.17
2023-02-27T00:20:07.860Z,29.20
2023-02-27T00:22:34.987Z,29.80
2023-02-27T00:25:02.227Z,32.80
2023-02-27T00:27:29.281Z,29.87
2023-02-27T00:29:56.295Z,30.03
2023-02-27T00:32:23.522Z,27.60
2023-02-27T00:34:50.611Z,27.07
2023-02-27T00:37:17.962Z,27.10
2023-02-27T00:39:45.193Z,27.47
2023-02-27T00:42:12.205Z,24.03
2023-02-27T00:44:40.998Z,22.70
2023-02-27T00:47:08.185Z,20.83
2023-02-27T00:49:35.247Z,18.80
2023-02-27T00:52:02.307Z,19.17
2023-02-27T00:54:30.068Z,22.87
2023-02-27T00:56:57.049Z,19.87
2023-02-27T00:59:24.140Z,16.97
2023-02-27T01:01:52.965Z,18.37
2023-02-27T01:04:20.031Z,21.53
2023-02-27T01:06:47.215Z,19.83
2023-02-27T01:09:14.292Z,13.30
2023-02-27T01:11:41.304Z,17.63
2023-02-27T01:14:08.804Z,12.53
2023-02-27T01:16:35.824Z,17.87
2023-02-27T01:19:03.222Z,16.10
2023-02-27T01:21:30.381Z,15.43
2023-02-27T01:23:57.469Z,13.93
2023-02-27T01:26:24.732Z,16.03
2023-02-27T01:28:51.795Z,14.40
2023-02-27T01:31:18.988Z,13.27
2023-02-27T01:33:49.037Z,11.73
2023-02-27T01:36:16.169Z,15.20
2023-02-27T01:38:43.249Z,15.83
2023-02-27T01:41:10.509Z,13.23
2023-02-27T01:44:10.246Z,17.27
2023-02-27T01:46:38.566Z,11.03
2023-02-27T01:49:12.073Z,11.90
2023-02-27T01:51:45.162Z,11.00
2023-02-27T01:54:14.550Z,12.60
2023-02-27T01:56:42.713Z,12.47
2023-02-27T01:59:12.125Z,15.37
2023-02-27T02:01:39.301Z,12.57
2023-02-27T02:04:25.926Z,11.83
2023-02-27T02:07:03.182Z,11.47
2023-02-27T02:09:31.211Z,11.00
2023-02-27T02:11:59.472Z,12.50
2023-02-27T02:14:26.667Z,13.37
2023-02-27T02:17:45.519Z,13.30
2023-02-27T02:20:30.779Z,12.27
2023-02-27T02:23:22.035Z,10.73
2023-02-27T02:26:18.563Z,10.20
2023-02-27T02:28:50.521Z,7.37
2023-02-27T02:31:26.954Z,8.03
2023-02-27T02:34:15.515Z,7.57
2023-02-27T02:37:18.834Z,10.50
2023-02-27T02:39:58.543Z,10.90
2023-02-27T02:42:35.021Z,10.70
2023-02-27T02:45:17.220Z,9.70
2023-02-27T02:47:47.587Z,10.63
2023-02-27T02:50:41.014Z,6.53
2023-02-27T02:53:37.756Z,8.17
2023-02-27T02:56:23.834Z,7.37
2023-02-27T02:58:59.711Z,8.97
2023-02-27T03:01:34.638Z,8.83
2023-02-27T03:04:17.622Z,6.80
2023-02-27T03:06:52.186Z,8.30
2023-02-27T03:09:27.248Z,8.33
2023-02-27T03:12:00.008Z,7.13
2023-02-27T03:14:34.676Z,8.57
2023-02-27T03:17:08.036Z,5.93
2023-02-27T03:19:46.255Z,7.37
2023-02-27T03:22:21.713Z,7.10
2023-02-27T03:24:52.915Z,6.90
2023-02-27T03:27:22.351Z,6.47
2023-02-27T03:30:02.820Z,6.30
2023-02-27T03:32:53.212Z,5.47
2023-02-27T03:35:20.571Z,6.77
2023-02-27T03:38:15.057Z,6.33
2023-02-27T03:40:48.135Z,6.00
2023-02-27T03:43:25.477Z,8.10
2023-02-27T03:46:15.467Z,6.60
2023-02-27T03:48:45.534Z,5.63
2023-02-27T03:51:15.629Z,5.30
2023-02-27T03:54:09.824Z,4.50
2023-02-27T03:57:18.669Z,7.53
2023-02-27T03:59:46.081Z,4.20
2023-02-27T04:02:13.188Z,3.93
2023-02-27T04:04:40.435Z,4.67
2023-02-27T04:07:45.405Z,6.10
2023-02-27T04:10:33.053Z,4.77
2023-02-27T04:13:22.003Z,3.27
2023-02-27T04:16:26.599Z,4.33
2023-02-27T04:18:56.962Z,3.47
2023-02-27T04:21:30.350Z,3.70
2023-02-27T04:24:06.292Z,4.73
2023-02-27T04:26:42.289Z,2.97
2023-02-27T04:29:18.737Z,3.97
2023-02-27T04:32:02.622Z,4.20
2023-02-27T04:34:33.403Z,6.47
2023-02-27T04:37:14.815Z,2.70
2023-02-27T04:39:52.084Z,4.23
2023-02-27T04:42:24.230Z,2.63
2023-02-27T04:44:54.440Z,3.90
2023-02-27T04:47:23.217Z,4.17
2023-02-27T04:50:02.467Z,4.50
2023-02-27T04:52:38.136Z,3.03
2023-02-27T04:55:24.395Z,3.63
2023-02-27T04:58:12.361Z,2.67
2023-02-27T05:00:43.282Z,7.57
2023-02-27T05:03:18.595Z,3.00
2023-02-27T05:05:48.762Z,2.67
2023-02-27T05:08:22.280Z,4.17
2023-02-27T05:11:18.309Z,4.40
2023-02-27T05:13:53.701Z,6.90
2023-02-27T05:16:28.228Z,7.80
2023-02-27T05:18:56.517Z,4.57
2023-02-27T05:21:30.725Z,7.00
2023-02-27T05:24:00.640Z,6.90
2023-02-27T05:26:45.868Z,7.87
2023-02-27T05:29:50.376Z,3.83
2023-02-27T05:32:37.402Z,4.40
2023-02-27T05:35:14.439Z,2.80
2023-02-27T05:38:29.117Z,4.73
2023-02-27T05:41:09.356Z,5.27
2023-02-27T05:43:53.881Z,4.43
2023-02-27T05:46:32.071Z,5.43
2023-02-27T05:49:04.900Z,4.73
2023-02-27T05:51:35.680Z,5.93
2023-02-27T05:54:24.915Z,3.10
2023-02-27T05:56:54.815Z,5.10
2023-02-27T05:59:34.280Z,3.60
2023-02-27T06:02:01.582Z,4.27
2023-02-27T06:04:28.980Z,4.07
2023-02-27T06:06:57.192Z,3.10
2023-02-27T06:09:24.357Z,4.43
2023-02-27T06:11:51.458Z,5.17
2023-02-27T06:14:18.413Z,7.67
2023-02-27T06:16:45.504Z,5.17
2023-02-27T06:19:12.826Z,5.53
2023-02-27T06:21:39.793Z,8.47
2023-02-27T06:24:07.004Z,6.43
2023-02-27T06:26:34.337Z,4.07
2023-02-27T06:29:01.351Z,4.33
2023-02-27T06:31:28.394Z,5.87
2023-02-27T06:33:55.805Z,7.27
2023-02-27T06:36:23.172Z,9.00
2023-02-27T06:38:50.452Z,7.73
2023-02-27T06:41:17.444Z,9.43
2023-02-27T06:43:44.499Z,7.97
2023-02-27T06:46:11.682Z,14.23
2023-02-27T06:48:38.789Z,14.77
2023-02-27T06:51:05.875Z,13.60
2023-02-27T06:53:33.513Z,9.37
2023-02-27T06:56:00.564Z,13.97
2023-02-27T06:58:27.526Z,11.47
2023-02-27T07:00:54.561Z,10.67
2023-02-27T07:03:21.528Z,11.10
2023-02-27T07:05:48.449Z,10.97
2023-02-27T07:08:17.640Z,12.27
2023-02-27T07:10:47.123Z,11.83
2023-02-27T07:13:17.294Z,13.97
2023-02-27T07:15:45.610Z,12.23
2023-02-27T07:18:12.805Z,13.27
2023-02-27T07:20:40.383Z,11.63
2023-02-27T07:23:07.607Z,10.80
2023-02-27T07:25:34.644Z,14.00
2023-02-27T07:28:01.789Z,14.97
2023-02-27T07:30:30.877Z,14.07
2023-02-27T07:32:58.199Z,15.80
2023-02-27T07:35:25.677Z,11.10
2023-02-27T07:37:52.852Z,9.37
2023-02-27T07:40:19.951Z,15.90
2023-02-27T07:42:52.744Z,11.97
2023-02-27T07:45:20.190Z,13.53
2023-02-27T07:47:47.607Z,9.83
2023-02-27T07:50:14.640Z,13.83
2023-02-27T07:52:42.951Z,13.43
2023-02-27T07:55:11.742Z,12.07
2023-02-27T07:57:39.117Z,13.67
2023-02-27T08:00:07.741Z,14.37
2023-02-27T08:02:39.458Z,10.50
2023-02-27T08:05:07.452Z,14.47
2023-02-27T08:07:34.528Z,11.77
2023-02-27T08:10:01.447Z,17.17
2023-02-27T08:12:28.520Z,16.13
2023-02-27T08:14:55.650Z,11.80
2023-02-27T08:17:22.622Z,11.70
2023-02-27T08:19:49.569Z,10.87
2023-02-27T08:22:16.635Z,13.57
2023-02-27T08:24:43.680Z,13.27
2023-02-27T08:27:10.708Z,14.00
2023-02-27T08:29:37.732Z,16.90
2023-02-27T08:32:05.218Z,16.50
2023-02-27T08:34:32.314Z,13.73
2023-02-27T08:36:59.528Z,10.67
2023-02-27T08:39:26.554Z,15.30
2023-02-27T08:41:53.770Z,15.60
2023-02-27T08:44:20.911Z,13.07
2023-02-27T08:46:47.931Z,19.73
2023-02-27T08:49:15.077Z,16.93
2023-02-27T08:51:42.299Z,11.03
2023-02-27T08:54:09.427Z,8.93
2023-02-27T08:56:36.545Z,7.67
2023-02-27T08:59:03.749Z,9.57
2023-02-27T09:01:34.555Z,9.13
2023-02-27T09:04:03.862Z,5.30
2023-02-27T09:06:31.993Z,5.20
2023-02-27T09:08:59.726Z,6.77
2023-02-27T09:11:28.502Z,5.10
2023-02-27T09:13:56.356Z,7.43
2023-02-27T09:16:24.296Z,8.60
2023-02-27T09:18:51.566Z,7.37
2023-02-27T09:21:18.844Z,7.97
2023-02-27T09:23:45.991Z,11.57
2023-02-27T09:26:13.431Z,5.47
2023-02-27T09:28:40.528Z,6.90
2023-02-27T09:31:08.282Z,6.27
2023-02-27T09:33:37.449Z,9.03
2023-02-27T09:36:06.577Z,5.93
2023-02-27T09:38:35.111Z,7.93
2023-02-27T09:41:02.499Z,7.37
2023-02-27T09:43:54.135Z,9.93
2023-02-27T09:46:25.799Z,10.57
2023-02-27T09:48:56.135Z,6.77
2023-02-27T09:51:23.617Z,6.23
2023-02-27T09:53:54.230Z,6.67
2023-02-27T09:56:32.517Z,6.30
2023-02-27T09:59:20.977Z,5.67
2023-02-27T10:02:12.346Z,10.83
2023-02-27T10:04:52.946Z,7.00
2023-02-27T10:07:35.601Z,8.50
2023-02-27T10:10:05.449Z,8.70
2023-02-27T10:12:38.554Z,6.63
2023-02-27T10:15:25.444Z,10.60
2023-02-27T10:18:20.242Z,6.90
2023-02-27T10:20:59.868Z,5.23
2023-02-27T10:23:49.825Z,6.37
2023-02-27T10:26:24.386Z,7.93
2023-02-27T10:28:51.423Z,5.47
2023-02-27T10:31:26.974Z,8.47
2023-02-27T10:33:55.746Z,6.00
2023-02-27T10:36:33.749Z,7.63
2023-02-27T10:39:11.139Z,6.97
2023-02-27T10:41:39.972Z,7.53
2023-02-27T10:44:07.524Z,9.53
2023-02-27T10:46:40.847Z,7.83
2023-02-27T10:49:19.282Z,7.50
2023-02-27T10:52:03.738Z,8.80
2023-02-27T10:54:31.271Z,8.27
2023-02-27T10:57:01.864Z,8.50
2023-02-27T10:59:35.563Z,12.10
2023-02-27T11:02:07.593Z,11.13
2023-02-27T11:04:39.886Z,12.53
2023-02-27T11:07:12.186Z,11.37
2023-02-27T11:09:39.334Z,10.23
2023-02-27T11:12:27.017Z,10.83
2023-02-27T11:15:00.179Z,13.80
2023-02-27T11:17:29.838Z,12.37
2023-02-27T11:19:57.979Z,14.33
2023-02-27T11:22:27.457Z,11.70
2023-02-27T11:25:21.365Z,12.00
2023-02-27T11:27:49.175Z,10.47
2023-02-27T11:30:27.326Z,8.67
2023-02-27T11:32:57.594Z,12.63
2023-02-27T11:35:38.686Z,10.30
2023-02-27T11:38:20.661Z,7.80
2023-02-27T11:40:58.418Z,8.57
2023-02-27T11:43:31.821Z,11.30
2023-02-27T11:46:04.920Z,9.43
2023-02-27T11:49:14.624Z,7.93
2023-02-27T11:51:50.691Z,8.93
2023-02-27T11:54:34.792Z,7.47
2023-02-27T11:57:28.428Z,5.57
2023-02-27T12:00:06.631Z,8.47
2023-02-27T12:02:42.661Z,6.70
2023-02-27T12:05:26.457Z,6.53
2023-02-27T12:08:05.846Z,8.53
2023-02-27T12:10:47.965Z,7.13
2023-02-27T12:13:39.801Z,5.67
2023-02-27T12:16:27.516Z,7.27
2023-02-27T12:19:07.690Z,11.07
2023-02-27T12:21:41.197Z,10.90
2023-02-27T12:24:10.742Z,11.77
2023-02-27T12:26:42.197Z,8.60
2023-02-27T12:29:26.405Z,10.40
2023-02-27T12:32:00.494Z,15.17
2023-02-27T12:34:34.699Z,16.80
2023-02-27T12:37:11.292Z,14.37
2023-02-27T12:39:40.166Z,14.90
2023-02-27T12:42:22.564Z,14.73
2023-02-27T12:44:49.693Z,14.53
2023-02-27T12:47:25.273Z,14.13
2023-02-27T12:50:21.431Z,16.47
2023-02-27T12:53:25.214Z,19.03
2023-02-27T12:56:01.263Z,16.77
2023-02-27T12:58:59.355Z,14.50
2023-02-27T13:01:41.102Z,16.67
2023-02-27T13:04:31.020Z,15.17
2023-02-27T13:07:04.409Z,18.10
2023-02-27T13:09:48.368Z,17.97
2023-02-27T13:12:28.787Z,14.23
2023-02-27T13:15:03.141Z,17.10
2023-02-27T13:17:46.004Z,16.40
2023-02-27T13:20:22.013Z,16.97
2023-02-27T13:23:02.790Z,16.07
2023-02-27T13:25:32.698Z,14.57
2023-02-27T13:28:04.444Z,16.73
2023-02-27T13:30:43.668Z,17.80
2023-02-27T13:33:43.022Z,14.57
2023-02-27T13:36:30.238Z,20.97
2023-02-27T13:38:57.460Z,15.00
2023-02-27T13:41:24.520Z,17.07
2023-02-27T13:43:53.246Z,21.03
2023-02-27T13:46:31.565Z,16.77
2023-02-27T13:49:04.807Z,20.17
2023-02-27T13:51:49.464Z,17.80
2023-02-27T13:54:16.559Z,19.07
2023-02-27T13:57:06.711Z,18.17
2023-02-27T13:59:36.761Z,21.23
2023-02-27T14:02:11.482Z,19.13
2023-02-27T14:04:51.591Z,21.83
2023-02-27T14:07:25.215Z,23.47
2023-02-27T14:10:08.888Z,20.67
2023-02-27T14:12:46.795Z,19.07
2023-02-27T14:15:22.843Z,18.70
2023-02-27T14:18:17.829Z,16.80
2023-02-27T14:20:51.396Z,18.10
2023-02-27T14:23:25.955Z,20.43
2023-02-27T14:26:16.524Z,21.40
2023-02-27T14:28:55.848Z,14.90
2023-02-27T14:31:30.220Z,15.80
2023-02-27T14:34:05.102Z,14.60
2023-02-27T14:36:42.859Z,12.53
2023-02-27T14:39:25.808Z,15.50
2023-02-27T14:42:24.760Z,12.40
2023-02-27T14:44:52.797Z,14.43
2023-02-27T14:47:37.005Z,15.43
2023-02-27T14:50:07.482Z,14.63
2023-02-27T14:52:42.848Z,13.63
2023-02-27T14:55:17.940Z,13.90
2023-02-27T14:58:01.790Z,11.60
2023-02-27T15:00:30.198Z,13.07
2023-02-27T15:02:58.962Z,9.50
2023-02-27T15:05:34.429Z,10.73
2023-02-27T15:08:02.089Z,7.13
2023-02-27T15:10:33.663Z,8.23
2023-02-27T15:13:02.020Z,7.47
2023-02-27T15:15:29.989Z,8.33
2023-02-27T15:17:57.090Z,7.03
2023-02-27T15:20:32.115Z,12.93
2023-02-27T15:23:02.106Z,8.50
2023-02-27T15:25:39.136Z,11.03
2023-02-27T15:28:19.608Z,7.63
2023-02-27T15:30:51.436Z,10.67
2023-02-27T15:33:22.012Z,11.27
2023-02-27T15:35:49.169Z,9.93
2023-02-27T15:38:30.915Z,11.80
2023-02-27T15:40:59.733Z,12.10
2023-02-27T15:43:28.458Z,14.47
2023-02-27T15:45:58.273Z,10.57
2023-02-27T15:48:26.162Z,12.87
2023-02-27T15:50:56.828Z,16.57
2023-02-27T15:53:29.054Z,17.37
2023-02-27T15:55:59.177Z,14.00
2023-02-27T15:58:33.053Z,16.17
2023-02-27T16:01:29.930Z,23.70
2023-02-27T16:04:00.211Z,18.50
2023-02-27T16:06:41.028Z,18.70
2023-02-27T16:09:21.830Z,17.73
2023-02-27T16:11:49.680Z,21.20
2023-02-27T16:14:36.311Z,18.43
2023-02-27T16:17:05.166Z,15.67
2023-02-27T16:19:32.786Z,18.33
2023-02-27T16:22:17.593Z,15.27
2023-02-27T16:24:45.305Z,16.23
2023-02-27T16:27:26.977Z,13.63
2023-02-27T16:29:56.633Z,13.37
2023-02-27T16:32:56.721Z,15.10
2023-02-27T16:35:25.037Z,17.13
2023-02-27T16:37:53.538Z,12.80
2023-02-27T16:40:23.143Z,15.30
2023-02-27T16:42:51.309Z,17.93
2023-02-27T16:45:25.533Z,16.00
2023-02-27T16:47:55.597Z,18.30
2023-02-27T16:50:40.774Z,19.87
2023-02-27T16:53:09.140Z,19.30
2023-02-27T16:55:40.738Z,20.67
2023-02-27T16:58:10.782Z,20.43
2023-02-27T17:00:37.923Z,23.37
2023-02-27T17:03:04.895Z,19.73
2023-02-27T17:05:32.042Z,19.27
2023-02-27T17:07:59.446Z,16.43
2023-02-27T17:10:26.760Z,21.10
2023-02-27T17:12:54.056Z,22.47
2023-02-27T17:15:21.327Z,16.33
2023-02-27T17:17:48.310Z,17.37
2023-02-27T17:20:15.394Z,16.77
2023-02-27T17:22:45.043Z,16.43
2023-02-27T17:25:12.968Z,21.70
2023-02-27T17:27:41.828Z,17.33
2023-02-27T17:30:09.809Z,18.70
2023-02-27T17:32:37.013Z,16.07
2023-02-27T17:35:04.419Z,15.43
2023-02-27T17:37:31.445Z,17.50
2023-02-27T17:39:58.571Z,16.77
2023-02-27T17:42:25.978Z,16.43
2023-02-27T17:44:53.226Z,17.80
2023-02-27T17:47:20.374Z,16.73
2023-02-27T17:49:47.762Z,20.93
2023-02-27T17:52:17.556Z,20.77
2023-02-27T17:54:44.574Z,18.70
2023-02-27T17:57:13.432Z,16.67
2023-02-27T17:59:41.031Z,20.63
2023-02-27T18:02:09.793Z,17.80
2023-02-27T18:04:36.917Z,16.50
2023-02-27T18:07:04.037Z,18.90
2023-02-27T18:09:31.153Z,17.97
2023-02-27T18:11:58.352Z,17.27
2023-02-27T18:14:25.851Z,18.53
2023-02-27T18:16:52.986Z,16.67
2023-02-27T18:19:20.156Z,16.13
2023-02-27T18:21:47.351Z,17.57
2023-02-27T18:24:16.139Z,18.13
2023-02-27T18:26:43.718Z,22.07
2023-02-27T18:29:14.085Z,18.83
2023-02-27T18:31:43.614Z,18.23
2023-02-27T18:34:11.119Z,20.53
2023-02-27T18:36:38.965Z,16.93
2023-02-27T18:39:06.549Z,20.87
2023-02-27T18:41:34.574Z,21.97
2023-02-27T18:44:01.707Z,21.50
2023-02-27T18:46:29.322Z,20.67
2023-02-27T18:48:57.006Z,18.27
2023-02-27T18:51:24.773Z,18.53
2023-02-27T18:53:52.196Z,20.00
2023-02-27T18:56:22.987Z,16.63
2023-02-27T18:58:51.503Z,19.03
2023-02-27T19:01:27.218Z,20.23
2023-02-27T19:04:00.318Z,17.93
2023-02-27T19:06:28.690Z,20.07
2023-02-27T19:08:56.115Z,20.97
2023-02-27T19:11:33.498Z,26.40
2023-02-27T19:14:01.949Z,24.20
2023-02-27T19:16:29.673Z,25.37
2023-02-27T19:19:01.606Z,23.17
2023-02-27T19:21:29.271Z,22.67
2023-02-27T19:23:56.538Z,21.97
2023-02-27T19:26:24.465Z,19.93
2023-02-27T19:28:55.577Z,22.60
2023-02-27T19:31:24.333Z,23.43
2023-02-27T19:33:51.588Z,24.13
2023-02-27T19:36:21.029Z,20.97
2023-02-27T19:38:48.939Z,24.37
2023-02-27T19:41:17.515Z,22.00
2023-02-27T19:43:44.950Z,23.73
2023-02-27T19:46:15.535Z,22.77
2023-02-27T19:48:43.271Z,24.67
2023-02-27T19:51:14.062Z,26.40
2023-02-27T19:53:42.889Z,26.97
2023-02-27T19:56:13.503Z,27.20
2023-02-27T19:58:40.975Z,28.43
2023-02-27T20:01:08.177Z,28.53
2023-02-27T20:03:36.545Z,27.47
2023-02-27T20:06:06.470Z,29.43
2023-02-27T20:08:34.251Z,25.00
2023-02-27T20:11:04.669Z,30.50
2023-02-27T20:13:32.092Z,28.57
2023-02-27T20:16:06.321Z,27.87
2023-02-27T20:18:34.132Z,31.57
2023-02-27T20:21:14.566Z,31.73
2023-02-27T20:23:43.288Z,27.27
2023-02-27T20:26:14.833Z,31.77
2023-02-27T20:28:42.257Z,31.43
2023-02-27T20:31:15.004Z,25.87
2023-02-27T20:33:43.237Z,28.50
2023-02-27T20:36:11.695Z,28.80
2023-02-27T20:38:39.643Z,25.40
2023-02-27T20:41:18.312Z,31.47
2023-02-27T20:43:45.791Z,27.13
2023-02-27T20:46:16.017Z,26.50
2023-02-27T20:48:43.915Z,29.57
2023-02-27T20:51:14.849Z,31.53
2023-02-27T20:53:43.899Z,29.07
2023-02-27T20:56:11.488Z,29.07
2023-02-27T20:58:39.301Z,27.07
2023-02-27T21:01:11.610Z,33.00
2023-02-27T21:03:40.503Z,30.37
2023-02-27T21:06:09.449Z,28.80
2023-02-27T21:08:37.694Z,27.53
2023-02-27T21:11:32.236Z,27.13
2023-02-27T21:14:04.359Z,28.37
2023-02-27T21:16:31.995Z,28.13
2023-02-27T21:18:59.300Z,28.23
2023-02-27T21:21:30.177Z,27.07
2023-02-27T21:23:58.339Z,27.77
2023-02-27T21:26:34.967Z,29.00
2023-02-27T21:29:10.883Z,31.03
2023-02-27T21:31:39.472Z,26.83
2023-02-27T21:34:11.484Z,25.57
2023-02-27T21:36:44.243Z,26.83
2023-02-27T21:39:20.389Z,24.57
2023-02-27T21:41:47.613Z,29.13
2023-02-27T21:44:16.898Z,25.40
2023-02-27T21:46:45.338Z,25.50
2023-02-27T21:49:18.748Z,23.57
2023-02-27T21:51:47.003Z,23.50
2023-02-27T21:54:15.539Z,28.53
2023-02-27T21:56:44.158Z,31.90
2023-02-27T21:59:12.136Z,25.17
2023-02-27T22:01:39.436Z,22.83
2023-02-27T22:04:07.165Z,23.47
2023-02-27T22:06:34.669Z,25.17
2023-02-27T22:09:05.142Z,25.50
2023-02-27T22:11:33.843Z,24.10
2023-02-27T22:14:01.281Z,22.37
2023-02-27T22:16:28.345Z,26.53
2023-02-27T22:18:55.434Z,26.57
2023-02-27T22:21:25.342Z,23.93
2023-02-27T22:23:53.193Z,22.63
2023-02-27T22:26:24.275Z,24.00
2023-02-27T22:28:52.437Z,24.47
2023-02-27T22:31:20.953Z,26.47
2023-02-27T22:33:50.183Z,23.63
2023-02-27T22:36:29.281Z,26.93
2023-02-27T22:38:57.326Z,24.10
2023-02-27T22:41:33.133Z,24.50
2023-02-27T22:44:02.372Z,26.23
2023-02-27T22:46:36.164Z,25.53
2023-02-27T22:49:10.284Z,26.33
2023-02-27T22:51:37.966Z,28.63
2023-02-27T22:54:06.147Z,27.50
2023-02-27T22:56:36.777Z,27.13
2023-02-27T22:59:05.532Z,26.13
2023-02-27T23:01:34.340Z,29.80
2023-02-27T23:04:04.122Z,28.67
2023-02-27T23:06:34.131Z,32.33
2023-02-27T23:09:01.794Z,27.23
2023-02-27T23:11:29.498Z,30.33
2023-02-27T23:13:57.017Z,32.73
2023-02-27T23:16:25.082Z,27.27
2023-02-27T23:18:54.632Z,33.23
2023-02-27T23:21:25.191Z,28.63
2023-02-27T23:23:57.724Z,32.30
2023-02-27T23:26:28.410Z,30.43
2023-02-27T23:28:56.788Z,27.97
2023-02-27T23:31:24.228Z,24.83
2023-02-27T23:33:51.266Z,28.27
2023-02-27T23:36:18.336Z,25.63
2023-02-27T23:38:46.735Z,26.17
2023-02-27T23:41:17.975Z,30.53
2023-02-27T23:43:45.269Z,30.00
2023-02-27T23:46:14.904Z,31.53
2023-02-27T23:48:42.918Z,32.70
2023-02-27T23:51:11.223Z,28.83
2023-02-27T23:53:40.400Z,29.17
2023-02-27T23:56:22.161Z,33.13
2023-02-27T23:58:54.782Z,24.70
